Aeroporto :
LOGIN :

Iscrizione | Disclaimer

   EN    FR    IT 

 










Sommario :    VFR   VFR Marginale   IFR   IFR Intensivo   IFR Molto Intensivo
Visibilità : 
Base nubi : 
>= 8 km
>= 3000ft
5 / 8 km
1000 / 3000 ft
1500m / 5 km
500 / 1000 ft
800 / 1500m
200 / 500 ft
< 800m
< 200 ft
Simboli :   Temporali  Nebbia  Neve Forte  Precipitazioni Forti  Vento > 20 kt
SIGMETs :   Varie  Temporali  Ghiacco  Turbolenza  Onda orograficha  Ceneri Vulcaniche






- Altitudine del aeroporto : 7 ft
- Codice IATA : ESH


EGKA - Shoreham

ULTIMO METAR :
  • 261150Z 33013KT 9999 FEW038 11/04 Q1010

METARs OBSOLETI :
  • 261120Z 33015KT 9999 FEW040 12/04 Q1010
  • 261050Z 33017KT 9999 FEW040 13/04 Q1010
  • 261020Z 34016KT CAVOK 12/04 Q1010
  • 260950Z 33012KT CAVOK 11/04 Q1010
  • 260920Z 33015KT CAVOK 10/03 Q1010

TAF TAF EGKA
Valido dal 26 a 12 ore il 26 a 19 ore UTC


261103Z 2612/2619 32018G28KT 9999 FEW045
PROB40
TEMPO 2615/2619 7000 RA
ATIS : +44 1273 467 372



MetMap, La meteo Aeronautica in un colpo d'occhio ! - Copyright ORBIFLY Dicembre 2007 - Disclaimer

ORBIFLY MET'MAP TEAM :

Programmazione e sviluppo : Alexandra Zaïnal
Concezione : Baudouin d'Aumeries
Aiuto per la programmazione : Marc-Olivier Méhu
Supporto tecnico e logistico : Manuel Goepfert
Aiuto per la traduzione : Arnaldo La Scala

Contatto : metmap@orbifly.com




FONTI E CREDITI :

   NOAA